createdAt,value
2022-08-25T00:01:54.539Z,20.49
2022-08-25T00:04:25.586Z,20.49
2022-08-25T00:06:59.395Z,20.49
2022-08-25T00:09:34.028Z,20.50
2022-08-25T00:12:03.541Z,20.51
2022-08-25T00:14:34.481Z,20.53
2022-08-25T00:17:03.491Z,20.53
2022-08-25T00:19:35.032Z,20.54
2022-08-25T00:22:03.978Z,20.53
2022-08-25T00:24:32.402Z,20.50
2022-08-25T00:27:01.399Z,20.49
2022-08-25T00:29:31.312Z,20.47
2022-08-25T00:32:00.912Z,20.45
2022-08-25T00:34:33.413Z,20.46
2022-08-25T00:37:03.292Z,20.48
2022-08-25T00:39:33.317Z,20.49
2022-08-25T00:42:04.014Z,20.51
2022-08-25T00:44:35.204Z,20.51
2022-08-25T00:47:05.177Z,20.49
2022-08-25T00:49:37.347Z,20.48
2022-08-25T00:52:16.276Z,20.49
2022-08-25T00:54:49.368Z,20.49
2022-08-25T00:57:27.167Z,20.48
2022-08-25T01:00:09.003Z,20.48
2022-08-25T01:02:37.559Z,20.49
2022-08-25T01:05:08.037Z,20.50
2022-08-25T01:07:37.710Z,20.51
2022-08-25T01:10:09.203Z,20.51
2022-08-25T01:12:37.970Z,20.51
2022-08-25T01:15:09.563Z,20.51
2022-08-25T01:17:47.934Z,20.53
2022-08-25T01:20:18.880Z,20.55
2022-08-25T01:22:47.986Z,20.56
2022-08-25T01:25:33.810Z,20.57
2022-08-25T01:28:04.658Z,20.58
2022-08-25T01:30:34.565Z,20.59
2022-08-25T01:33:05.354Z,20.59
2022-08-25T01:35:34.253Z,20.61
2022-08-25T01:38:04.590Z,20.63
2022-08-25T01:40:33.990Z,20.68
2022-08-25T01:43:21.160Z,20.72
2022-08-25T01:45:50.129Z,20.75
2022-08-25T01:48:19.970Z,20.79
2022-08-25T01:50:48.247Z,20.81
2022-08-25T01:53:22.997Z,20.83
2022-08-25T01:55:51.371Z,20.84
2022-08-25T01:58:20.998Z,20.85
2022-08-25T02:00:53.744Z,20.87
2022-08-25T02:03:22.859Z,20.93
2022-08-25T02:05:52.908Z,20.96
2022-08-25T02:08:22.579Z,20.95
2022-08-25T02:10:51.996Z,20.97
2022-08-25T02:13:20.571Z,20.97
2022-08-25T02:15:57.205Z,20.99
2022-08-25T02:18:25.608Z,21.01
2022-08-25T02:20:53.911Z,21.04
2022-08-25T02:23:22.312Z,21.05
2022-08-25T02:25:50.684Z,21.04
2022-08-25T02:28:19.028Z,21.11
2022-08-25T02:30:47.567Z,21.21
2022-08-25T02:33:15.860Z,21.26
2022-08-25T02:35:44.463Z,21.29
2022-08-25T02:38:12.662Z,21.35
2022-08-25T02:40:41.288Z,21.40
2022-08-25T02:43:09.652Z,21.42
2022-08-25T02:45:38.028Z,21.37
2022-08-25T02:48:06.383Z,21.35
2022-08-25T02:50:34.845Z,21.37
2022-08-25T02:53:03.676Z,21.35
2022-08-25T02:55:32.029Z,21.33
2022-08-25T02:58:03.014Z,21.28
2022-08-25T03:00:31.363Z,21.22
2022-08-25T03:03:00.759Z,21.16
2022-08-25T03:05:29.228Z,21.12
2022-08-25T03:07:57.511Z,21.12
2022-08-25T03:10:27.204Z,21.18
2022-08-25T03:12:55.869Z,21.18
2022-08-25T03:15:25.112Z,21.16
2022-08-25T03:17:53.913Z,21.14
2022-08-25T03:20:23.432Z,21.12
2022-08-25T03:22:52.360Z,21.10
2022-08-25T03:25:39.307Z,21.11
2022-08-25T03:28:10.563Z,21.18
2022-08-25T03:30:39.342Z,21.21
2022-08-25T03:33:09.260Z,21.22
2022-08-25T03:35:37.734Z,21.20
2022-08-25T03:38:06.227Z,21.15
2022-08-25T03:40:34.800Z,21.08
2022-08-25T03:43:03.390Z,21.05
2022-08-25T03:45:31.795Z,21.06
2022-08-25T03:48:00.515Z,21.08
2022-08-25T03:50:29.071Z,21.09
2022-08-25T03:52:58.751Z,21.12
2022-08-25T03:55:28.271Z,21.16
2022-08-25T03:57:57.657Z,21.21
2022-08-25T04:00:25.944Z,21.25
2022-08-25T04:02:54.407Z,21.27
2022-08-25T04:05:22.698Z,21.33
2022-08-25T04:07:55.592Z,21.45
2022-08-25T04:10:24.641Z,21.54
2022-08-25T04:12:52.942Z,21.64
2022-08-25T04:15:21.462Z,21.71
2022-08-25T04:17:51.136Z,21.74
2022-08-25T04:20:20.499Z,21.72
2022-08-25T04:22:49.030Z,21.65
2022-08-25T04:25:17.546Z,21.58
2022-08-25T04:27:45.855Z,21.55
2022-08-25T04:30:15.859Z,21.54
2022-08-25T04:32:44.141Z,21.56
2022-08-25T04:35:12.450Z,21.57
2022-08-25T04:37:41.668Z,21.60
2022-08-25T04:40:12.365Z,21.61
2022-08-25T04:42:40.712Z,21.67
2022-08-25T04:45:09.769Z,21.73
2022-08-25T04:47:39.756Z,21.80
2022-08-25T04:50:09.197Z,21.83
2022-08-25T04:52:37.735Z,21.88
2022-08-25T04:55:06.945Z,21.95
2022-08-25T04:57:35.392Z,22.00
2022-08-25T05:00:06.170Z,22.05
2022-08-25T05:02:35.399Z,22.11
2022-08-25T05:05:03.975Z,22.19
2022-08-25T05:07:32.420Z,22.27
2022-08-25T05:10:01.043Z,22.34
2022-08-25T05:12:30.933Z,22.41
2022-08-25T05:15:22.133Z,22.50
2022-08-25T05:17:55.239Z,22.62
2022-08-25T05:20:25.103Z,22.83
2022-08-25T05:22:53.603Z,23.27
2022-08-25T05:25:21.902Z,23.71
2022-08-25T05:27:50.527Z,24.10
2022-08-25T05:30:19.215Z,24.40
2022-08-25T05:32:48.076Z,24.58
2022-08-25T05:35:16.508Z,24.66
2022-08-25T05:37:44.765Z,24.59
2022-08-25T05:40:14.306Z,24.54
2022-08-25T05:42:42.741Z,24.49
2022-08-25T05:45:16.736Z,24.41
2022-08-25T05:47:49.583Z,24.31
2022-08-25T05:50:19.207Z,24.26
2022-08-25T05:52:47.487Z,24.24
2022-08-25T05:55:16.015Z,24.26
2022-08-25T05:57:44.769Z,24.21
2022-08-25T06:00:14.891Z,24.15
2022-08-25T06:02:45.761Z,24.14
2022-08-25T06:05:17.214Z,24.21
2022-08-25T06:07:46.528Z,24.28
2022-08-25T06:10:15.941Z,24.31
2022-08-25T06:12:46.158Z,24.29
2022-08-25T06:15:17.928Z,24.27
2022-08-25T06:17:47.465Z,24.28
2022-08-25T06:20:18.821Z,24.32
2022-08-25T06:22:51.832Z,24.35
2022-08-25T06:25:23.315Z,24.35
2022-08-25T06:27:51.969Z,24.37
2022-08-25T06:30:25.706Z,24.36
2022-08-25T06:32:57.255Z,24.40
2022-08-25T06:35:26.021Z,24.41
2022-08-25T06:37:55.224Z,24.40
2022-08-25T06:40:24.747Z,24.43
2022-08-25T06:42:53.445Z,24.49
2022-08-25T06:45:21.934Z,24.50
2022-08-25T06:47:52.337Z,24.57
2022-08-25T06:50:21.074Z,24.65
2022-08-25T06:52:49.358Z,24.72
2022-08-25T06:55:18.101Z,24.77
2022-08-25T06:57:47.994Z,24.85
2022-08-25T07:00:17.208Z,24.88
2022-08-25T07:02:47.990Z,24.95
2022-08-25T07:05:26.915Z,25.00
2022-08-25T07:07:55.852Z,25.03
2022-08-25T07:10:24.438Z,25.10
2022-08-25T07:12:52.976Z,25.21
2022-08-25T07:15:21.369Z,25.29
2022-08-25T07:17:50.235Z,25.36
2022-08-25T07:20:19.533Z,25.43
2022-08-25T07:22:48.088Z,25.49
2022-08-25T07:25:17.858Z,25.58
2022-08-25T07:27:46.566Z,25.68
2022-08-25T07:30:16.651Z,25.79
2022-08-25T07:32:45.097Z,25.90
2022-08-25T07:35:18.816Z,26.01
2022-08-25T07:37:50.772Z,26.10
2022-08-25T07:40:21.815Z,26.17
2022-08-25T07:42:51.612Z,26.25
2022-08-25T07:45:29.217Z,26.35
2022-08-25T07:47:59.091Z,26.46
2022-08-25T07:50:30.857Z,26.57
2022-08-25T07:53:00.100Z,26.64
2022-08-25T07:55:29.975Z,26.71
2022-08-25T07:57:59.384Z,26.83
2022-08-25T08:00:29.698Z,26.93
2022-08-25T08:02:59.524Z,27.05
2022-08-25T08:05:28.806Z,27.17
2022-08-25T08:07:57.800Z,27.19
2022-08-25T08:10:53.566Z,27.26
2022-08-25T08:13:18.059Z,27.33
2022-08-25T08:15:47.899Z,27.41
2022-08-25T08:18:16.753Z,27.54
2022-08-25T08:20:48.318Z,27.70
2022-08-25T08:23:17.935Z,27.82
2022-08-25T08:25:46.256Z,27.90
2022-08-25T08:28:14.541Z,28.01
2022-08-25T08:30:53.686Z,28.09
2022-08-25T08:33:24.528Z,28.24
2022-08-25T08:36:00.995Z,28.39
2022-08-25T08:38:34.836Z,28.57
2022-08-25T08:41:54.276Z,28.75
2022-08-25T08:44:30.151Z,29.05
2022-08-25T08:47:05.276Z,29.29
2022-08-25T08:49:50.227Z,29.66
2022-08-25T08:52:24.306Z,30.05
2022-08-25T08:55:00.299Z,30.35
2022-08-25T08:57:31.404Z,30.55
2022-08-25T09:00:02.703Z,30.92
2022-08-25T09:02:39.413Z,31.32
2022-08-25T09:05:24.114Z,31.72
2022-08-25T09:07:57.084Z,32.01
2022-08-25T09:10:35.056Z,32.26
2022-08-25T09:13:15.406Z,32.50
2022-08-25T09:16:10.601Z,32.76
2022-08-25T09:18:54.588Z,32.97
2022-08-25T09:21:34.034Z,33.12
2022-08-25T09:24:21.052Z,33.34
2022-08-25T09:27:02.519Z,33.45
2022-08-25T09:29:42.286Z,33.61
2022-08-25T09:32:10.844Z,33.74
2022-08-25T09:34:46.109Z,33.93
2022-08-25T09:37:14.848Z,34.15
2022-08-25T09:39:43.174Z,34.35
2022-08-25T09:42:11.512Z,34.49
2022-08-25T09:44:43.115Z,34.59
2022-08-25T09:47:21.927Z,34.71
2022-08-25T09:49:56.640Z,34.80
2022-08-25T09:52:32.066Z,34.92
2022-08-25T09:55:20.573Z,35.08
2022-08-25T09:57:52.806Z,35.28
2022-08-25T10:00:24.935Z,35.51
2022-08-25T10:03:07.815Z,35.66
2022-08-25T10:05:46.536Z,35.74
2022-08-25T10:08:26.004Z,35.80
2022-08-25T10:10:57.056Z,35.84
2022-08-25T10:13:37.473Z,35.85
2022-08-25T10:16:20.011Z,35.98
2022-08-25T10:19:05.308Z,36.02
2022-08-25T10:21:34.218Z,36.12
2022-08-25T10:24:05.324Z,36.18
2022-08-25T10:26:48.228Z,36.22
2022-08-25T10:29:32.483Z,36.30
2022-08-25T10:32:12.130Z,36.35
2022-08-25T10:34:51.555Z,36.37
2022-08-25T10:37:35.192Z,36.48
2022-08-25T10:40:14.530Z,36.58
2022-08-25T10:43:00.375Z,36.68
2022-08-25T10:45:43.997Z,36.69
2022-08-25T10:48:42.435Z,36.81
2022-08-25T10:51:27.240Z,36.68
2022-08-25T10:54:07.144Z,36.64
2022-08-25T10:56:41.821Z,36.57
2022-08-25T10:59:38.748Z,36.53
2022-08-25T11:02:41.767Z,36.60
2022-08-25T11:05:17.305Z,36.62
2022-08-25T11:07:59.308Z,36.78
2022-08-25T11:10:36.604Z,36.86
2022-08-25T11:13:19.267Z,36.92
2022-08-25T11:16:16.158Z,37.01
2022-08-25T11:18:53.812Z,36.97
2022-08-25T11:21:27.109Z,36.90
2022-08-25T11:24:05.149Z,36.94
2022-08-25T11:26:37.998Z,36.95
2022-08-25T11:29:16.033Z,37.01
2022-08-25T11:31:52.778Z,37.10
2022-08-25T11:34:22.701Z,37.16
2022-08-25T11:36:54.607Z,37.18
2022-08-25T11:39:40.910Z,37.26
2022-08-25T11:42:25.746Z,37.26
2022-08-25T11:45:07.263Z,37.26
2022-08-25T11:47:49.786Z,37.34
2022-08-25T11:50:31.621Z,37.38
2022-08-25T11:53:16.341Z,37.40
2022-08-25T11:55:50.016Z,37.39
2022-08-25T11:58:40.625Z,37.40
2022-08-25T12:01:32.219Z,37.39
2022-08-25T12:04:16.840Z,37.33
2022-08-25T12:07:22.056Z,37.27
2022-08-25T12:10:22.720Z,37.08
2022-08-25T12:13:26.211Z,37.02
2022-08-25T12:16:00.885Z,37.00
2022-08-25T12:18:45.769Z,36.95
2022-08-25T12:21:30.982Z,36.76
2022-08-25T12:24:17.985Z,36.67
2022-08-25T12:26:53.720Z,36.60
2022-08-25T12:29:34.299Z,36.53
2022-08-25T12:32:20.703Z,36.37
2022-08-25T12:35:15.292Z,36.15
2022-08-25T12:38:00.532Z,36.02
2022-08-25T12:40:33.913Z,35.90
2022-08-25T12:43:07.776Z,35.84
2022-08-25T12:45:42.683Z,35.89
2022-08-25T12:48:41.727Z,35.88
2022-08-25T12:51:18.887Z,35.71
2022-08-25T12:53:50.817Z,35.60
2022-08-25T12:56:25.159Z,35.54
2022-08-25T12:59:03.343Z,35.53
2022-08-25T13:01:44.153Z,35.46
2022-08-25T13:04:33.178Z,35.32
2022-08-25T13:07:19.129Z,35.22
2022-08-25T13:10:20.644Z,35.09
2022-08-25T13:12:55.253Z,34.89
2022-08-25T13:15:34.089Z,34.78
2022-08-25T13:18:15.766Z,34.67
2022-08-25T13:20:46.706Z,34.55
2022-08-25T13:23:19.797Z,34.47
2022-08-25T13:25:52.063Z,34.44
2022-08-25T13:28:27.439Z,34.29
2022-08-25T13:31:16.678Z,34.27
2022-08-25T13:33:56.333Z,34.25
2022-08-25T13:36:51.883Z,34.21
2022-08-25T13:39:45.451Z,34.13
2022-08-25T13:42:16.924Z,34.04
2022-08-25T13:44:51.927Z,33.97
2022-08-25T13:47:43.475Z,33.89
2022-08-25T13:50:28.666Z,33.80
2022-08-25T13:52:59.912Z,33.73
2022-08-25T13:55:38.311Z,33.61
2022-08-25T13:58:24.868Z,33.59
2022-08-25T14:01:19.911Z,33.56
2022-08-25T14:03:54.632Z,33.55
2022-08-25T14:06:24.616Z,33.52
2022-08-25T14:09:15.722Z,33.52
2022-08-25T14:11:55.008Z,33.48
2022-08-25T14:14:35.226Z,33.38
2022-08-25T14:17:21.534Z,33.31
2022-08-25T14:19:57.120Z,33.24
2022-08-25T14:22:26.767Z,33.19
2022-08-25T14:24:55.518Z,33.16
2022-08-25T14:27:24.186Z,33.15
2022-08-25T14:29:53.041Z,33.12
2022-08-25T14:32:21.590Z,33.08
2022-08-25T14:34:50.197Z,33.02
2022-08-25T14:37:20.480Z,32.95
2022-08-25T14:39:54.445Z,32.88
2022-08-25T14:42:22.810Z,32.82
2022-08-25T14:44:54.656Z,32.77
2022-08-25T14:47:24.954Z,32.68
2022-08-25T14:49:53.286Z,32.60
2022-08-25T14:52:27.116Z,32.53
2022-08-25T14:54:56.746Z,32.48
2022-08-25T14:57:25.904Z,32.43
2022-08-25T14:59:54.216Z,32.38
2022-08-25T15:02:29.502Z,32.35
2022-08-25T15:05:05.287Z,32.31
2022-08-25T15:07:52.944Z,32.26
2022-08-25T15:10:21.923Z,32.22
2022-08-25T15:12:51.147Z,32.17
2022-08-25T15:15:25.865Z,32.13
2022-08-25T15:17:55.314Z,32.07
2022-08-25T15:20:27.810Z,32.02
2022-08-25T15:22:57.449Z,31.95
2022-08-25T15:25:26.582Z,31.91
2022-08-25T15:27:56.727Z,31.88
2022-08-25T15:30:30.672Z,31.84
2022-08-25T15:32:59.830Z,31.80
2022-08-25T15:35:29.160Z,31.76
2022-08-25T15:37:57.920Z,31.69
2022-08-25T15:40:26.328Z,31.63
2022-08-25T15:42:55.324Z,31.59
2022-08-25T15:45:24.594Z,31.52
2022-08-25T15:47:53.992Z,31.46
2022-08-25T15:50:26.098Z,31.41
2022-08-25T15:52:54.710Z,31.35
2022-08-25T15:55:23.081Z,31.28
2022-08-25T15:57:51.562Z,31.20
2022-08-25T16:00:21.662Z,31.12
2022-08-25T16:02:50.524Z,31.04
2022-08-25T16:05:25.780Z,30.98
2022-08-25T16:07:55.479Z,30.94
2022-08-25T16:10:23.980Z,30.88
2022-08-25T16:12:53.601Z,30.84
2022-08-25T16:15:23.239Z,30.76
2022-08-25T16:18:00.130Z,30.64
2022-08-25T16:20:30.233Z,30.53
2022-08-25T16:23:00.106Z,30.43
2022-08-25T16:25:28.700Z,30.35
2022-08-25T16:27:57.277Z,30.29
2022-08-25T16:30:25.832Z,30.20
2022-08-25T16:32:55.568Z,30.12
2022-08-25T16:35:24.363Z,30.04
2022-08-25T16:37:52.699Z,29.96
2022-08-25T16:40:23.915Z,29.86
2022-08-25T16:42:53.009Z,29.77
2022-08-25T16:45:21.961Z,29.66
2022-08-25T16:47:50.468Z,29.56
2022-08-25T16:50:18.980Z,29.49
2022-08-25T16:53:08.004Z,29.40
2022-08-25T16:55:39.250Z,29.29
2022-08-25T16:58:16.246Z,29.17
2022-08-25T17:00:47.314Z,29.04
2022-08-25T17:03:16.792Z,28.88
2022-08-25T17:05:45.173Z,28.74
2022-08-25T17:08:29.180Z,28.58
2022-08-25T17:11:08.456Z,28.42
2022-08-25T17:13:38.569Z,28.25
2022-08-25T17:16:07.858Z,28.11
2022-08-25T17:18:37.785Z,27.99
2022-08-25T17:21:11.899Z,27.85
2022-08-25T17:23:48.285Z,27.70
2022-08-25T17:26:20.474Z,27.58
2022-08-25T17:28:57.037Z,27.45
2022-08-25T17:31:29.945Z,27.31
2022-08-25T17:33:59.199Z,27.15
2022-08-25T17:36:28.408Z,27.02
2022-08-25T17:38:57.139Z,26.92
2022-08-25T17:41:25.878Z,26.83
2022-08-25T17:43:54.532Z,26.72
2022-08-25T17:46:23.792Z,26.65
2022-08-25T17:48:53.400Z,26.52
2022-08-25T17:51:22.405Z,26.36
2022-08-25T17:53:52.175Z,26.20
2022-08-25T17:56:22.833Z,26.05
2022-08-25T17:58:54.664Z,25.90
2022-08-25T18:01:26.120Z,25.76
2022-08-25T18:03:56.846Z,25.61
2022-08-25T18:06:26.839Z,25.44
2022-08-25T18:08:59.274Z,25.28
2022-08-25T18:11:30.196Z,25.12
2022-08-25T18:13:59.498Z,24.96
2022-08-25T18:16:28.524Z,24.80
2022-08-25T18:18:57.177Z,24.66
2022-08-25T18:21:30.676Z,24.53
2022-08-25T18:24:03.009Z,24.38
2022-08-25T18:26:32.507Z,24.25
2022-08-25T18:29:01.584Z,24.13
2022-08-25T18:31:30.105Z,24.02
2022-08-25T18:33:59.030Z,23.93
2022-08-25T18:36:28.078Z,23.83
2022-08-25T18:39:14.782Z,23.73
2022-08-25T18:41:45.508Z,23.60
2022-08-25T18:44:15.565Z,23.49
2022-08-25T18:46:45.543Z,23.40
2022-08-25T18:49:16.641Z,23.31
2022-08-25T18:51:47.141Z,23.21
2022-08-25T18:54:23.212Z,23.12
2022-08-25T18:56:53.826Z,23.04
2022-08-25T18:59:23.755Z,22.98
2022-08-25T19:01:54.221Z,22.93
2022-08-25T19:04:31.293Z,22.89
2022-08-25T19:07:01.726Z,22.83
2022-08-25T19:09:32.260Z,22.77
2022-08-25T19:12:02.004Z,22.70
2022-08-25T19:14:31.087Z,22.62
2022-08-25T19:17:00.874Z,22.55
2022-08-25T19:19:30.765Z,22.53
2022-08-25T19:21:59.979Z,22.51
2022-08-25T19:24:29.253Z,22.49
2022-08-25T19:27:01.918Z,22.46
2022-08-25T19:29:31.060Z,22.42
2022-08-25T19:32:01.616Z,22.33
2022-08-25T19:34:34.670Z,22.24
2022-08-25T19:37:05.758Z,22.13
2022-08-25T19:39:39.177Z,22.07
2022-08-25T19:42:31.711Z,22.02
2022-08-25T19:44:58.986Z,21.98
2022-08-25T19:47:29.146Z,21.91
2022-08-25T19:49:58.181Z,21.82
2022-08-25T19:52:26.892Z,21.75
2022-08-25T19:54:57.072Z,21.68
2022-08-25T19:57:28.555Z,21.61
2022-08-25T20:00:15.256Z,21.56
2022-08-25T20:02:44.566Z,21.53
2022-08-25T20:05:14.376Z,21.49
2022-08-25T20:07:43.830Z,21.41
2022-08-25T20:10:14.541Z,21.31
2022-08-25T20:12:44.393Z,21.23
2022-08-25T20:15:16.436Z,21.16
2022-08-25T20:17:45.593Z,21.08
2022-08-25T20:20:18.231Z,21.03
2022-08-25T20:22:48.699Z,20.99
2022-08-25T20:25:19.591Z,20.92
2022-08-25T20:27:51.390Z,20.86
2022-08-25T20:30:22.605Z,20.82
2022-08-25T20:32:52.352Z,20.80
2022-08-25T20:35:21.349Z,20.76
2022-08-25T20:37:58.849Z,20.69
2022-08-25T20:40:29.971Z,20.61
2022-08-25T20:43:01.637Z,20.54
2022-08-25T20:45:31.691Z,20.49
2022-08-25T20:48:00.725Z,20.43
2022-08-25T20:50:29.221Z,20.40
2022-08-25T20:52:58.172Z,20.37
2022-08-25T20:55:28.385Z,20.35
2022-08-25T20:57:56.766Z,20.31
2022-08-25T21:00:25.279Z,20.28
2022-08-25T21:02:54.812Z,20.27
2022-08-25T21:05:23.205Z,20.25
2022-08-25T21:07:51.847Z,20.25
2022-08-25T21:10:20.728Z,20.24
2022-08-25T21:12:49.125Z,20.19
2022-08-25T21:15:23.003Z,20.14
2022-08-25T21:17:54.512Z,20.08
2022-08-25T21:20:24.590Z,20.02
2022-08-25T21:22:53.876Z,19.98
2022-08-25T21:25:22.625Z,19.96
2022-08-25T21:27:50.960Z,19.95
2022-08-25T21:30:19.518Z,19.92
2022-08-25T21:32:52.978Z,19.89
2022-08-25T21:35:23.059Z,19.86
2022-08-25T21:37:53.214Z,19.81
2022-08-25T21:40:22.886Z,19.76
2022-08-25T21:42:52.045Z,19.72
2022-08-25T21:51:43.347Z,19.65
2022-08-25T21:54:14.108Z,19.63
2022-08-25T21:56:45.592Z,19.61
2022-08-25T21:59:16.321Z,19.56
2022-08-25T22:01:45.390Z,19.51
2022-08-25T22:04:14.976Z,19.47
2022-08-25T22:06:43.710Z,19.45
2022-08-25T22:09:13.722Z,19.43
2022-08-25T22:11:44.100Z,19.41
2022-08-25T22:14:13.773Z,19.39
2022-08-25T22:16:43.276Z,19.37
2022-08-25T22:19:13.489Z,19.33
2022-08-25T22:21:44.564Z,19.28
2022-08-25T22:24:12.913Z,19.22
2022-08-25T22:26:42.104Z,19.17
2022-08-25T22:29:25.050Z,19.12
2022-08-25T22:31:57.837Z,19.09
2022-08-25T22:34:32.465Z,19.05
2022-08-25T22:37:03.710Z,19.04
2022-08-25T22:39:34.353Z,19.07
2022-08-25T22:42:03.264Z,19.07
2022-08-25T22:44:31.658Z,19.05
2022-08-25T22:47:00.128Z,19.03
2022-08-25T22:49:29.378Z,19.03
2022-08-25T22:51:58.505Z,19.08
2022-08-25T22:54:27.425Z,19.08
2022-08-25T22:56:55.841Z,19.04
2022-08-25T22:59:25.383Z,18.96
2022-08-25T23:01:54.866Z,18.89
2022-08-25T23:04:25.214Z,18.83
2022-08-25T23:06:53.672Z,18.78
2022-08-25T23:09:22.207Z,18.73
2022-08-25T23:11:51.213Z,18.66
2022-08-25T23:14:19.752Z,18.59
2022-08-25T23:16:50.291Z,18.53
2022-08-25T23:19:19.238Z,18.49
2022-08-25T23:22:02.780Z,18.46
2022-08-25T23:24:31.536Z,18.41
2022-08-25T23:27:01.152Z,18.39
2022-08-25T23:29:31.464Z,18.35
2022-08-25T23:32:00.195Z,18.30
2022-08-25T23:34:29.032Z,18.30
2022-08-25T23:36:57.818Z,18.29
2022-08-25T23:39:26.099Z,18.28
2022-08-25T23:41:54.391Z,18.28
2022-08-25T23:44:25.607Z,18.27
2022-08-25T23:46:54.457Z,18.23
2022-08-25T23:49:24.341Z,18.20
2022-08-25T23:51:55.120Z,18.17
2022-08-25T23:54:31.046Z,18.14
2022-08-25T23:57:01.688Z,18.08
2022-08-25T23:59:30.123Z,18.02
